sensor_id;sensor_type;location;lat;lon;timestamp;pressure;altitude;pressure_sealevel;temperature;humidity
51053;BME280;37093;37.716;-122.060;2023-03-11T00:00:18;99476.28;;;16.71;38.05
51053;BME280;37093;37.716;-122.060;2023-03-11T00:02:49;99473.87;;;16.68;39.00
51053;BME280;37093;37.716;-122.060;2023-03-11T00:05:21;99471.17;;;16.87;39.43
51053;BME280;37093;37.716;-122.060;2023-03-11T00:07:50;99475.04;;;16.40;38.15
51053;BME280;37093;37.716;-122.060;2023-03-11T00:10:21;99481.26;;;16.49;34.77
51053;BME280;37093;37.716;-122.060;2023-03-11T00:12:49;99484.64;;;16.59;38.64
51053;BME280;37093;37.716;-122.060;2023-03-11T00:15:18;99482.20;;;16.39;35.93
51053;BME280;37093;37.716;-122.060;2023-03-11T00:17:48;99475.93;;;16.21;35.13
51053;BME280;37093;37.716;-122.060;2023-03-11T00:20:19;99487.02;;;16.62;37.04
51053;BME280;37093;37.716;-122.060;2023-03-11T00:22:49;99487.12;;;16.44;36.52
51053;BME280;37093;37.716;-122.060;2023-03-11T00:25:19;99495.57;;;15.63;36.49
51053;BME280;37093;37.716;-122.060;2023-03-11T00:27:48;99490.96;;;16.44;35.62
51053;BME280;37093;37.716;-122.060;2023-03-11T00:30:17;99489.83;;;16.47;36.16
51053;BME280;37093;37.716;-122.060;2023-03-11T00:32:49;99489.04;;;16.23;34.90
51053;BME280;37093;37.716;-122.060;2023-03-11T00:35:20;99482.22;;;16.53;34.79
51053;BME280;37093;37.716;-122.060;2023-03-11T00:37:56;99486.50;;;16.51;34.33
51053;BME280;37093;37.716;-122.060;2023-03-11T00:42:11;99484.08;;;16.68;35.45
51053;BME280;37093;37.716;-122.060;2023-03-11T00:44:40;99486.36;;;16.77;34.43
51053;BME280;37093;37.716;-122.060;2023-03-11T00:47:10;99491.27;;;16.27;33.84
51053;BME280;37093;37.716;-122.060;2023-03-11T00:49:40;99497.49;;;16.08;33.89
51053;BME280;37093;37.716;-122.060;2023-03-11T00:52:08;99499.95;;;15.63;35.35
51053;BME280;37093;37.716;-122.060;2023-03-11T00:54:36;99496.32;;;15.60;34.15
51053;BME280;37093;37.716;-122.060;2023-03-11T00:57:05;99492.98;;;16.21;36.58
51053;BME280;37093;37.716;-122.060;2023-03-11T00:59:34;99497.45;;;16.49;36.23
51053;BME280;37093;37.716;-122.060;2023-03-11T01:02:02;99499.24;;;16.24;36.52
51053;BME280;37093;37.716;-122.060;2023-03-11T01:04:30;99506.17;;;15.73;39.13
51053;BME280;37093;37.716;-122.060;2023-03-11T01:07:00;99509.62;;;16.07;39.48
51053;BME280;37093;37.716;-122.060;2023-03-11T01:09:29;99506.60;;;16.12;41.48
51053;BME280;37093;37.716;-122.060;2023-03-11T01:11:57;99505.30;;;15.96;40.62
51053;BME280;37093;37.716;-122.060;2023-03-11T01:14:25;99501.67;;;16.37;37.88
51053;BME280;37093;37.716;-122.060;2023-03-11T01:16:54;99497.12;;;16.21;40.28
51053;BME280;37093;37.716;-122.060;2023-03-11T01:19:22;99489.88;;;16.07;41.30
51053;BME280;37093;37.716;-122.060;2023-03-11T01:21:51;99482.45;;;16.50;41.52
51053;BME280;37093;37.716;-122.060;2023-03-11T01:24:19;99484.88;;;16.66;42.50
51053;BME280;37093;37.716;-122.060;2023-03-11T01:26:48;99485.33;;;16.51;41.26
51053;BME280;37093;37.716;-122.060;2023-03-11T01:29:16;99487.90;;;16.53;41.11
51053;BME280;37093;37.716;-122.060;2023-03-11T01:31:45;99492.52;;;16.61;40.02
51053;BME280;37093;37.716;-122.060;2023-03-11T01:34:13;99499.16;;;16.46;40.04
51053;BME280;37093;37.716;-122.060;2023-03-11T01:36:42;99506.29;;;16.17;40.54
51053;BME280;37093;37.716;-122.060;2023-03-11T01:39:11;99511.44;;;16.08;39.47
51053;BME280;37093;37.716;-122.060;2023-03-11T01:41:39;99512.97;;;15.82;41.94
51053;BME280;37093;37.716;-122.060;2023-03-11T01:44:11;99513.92;;;15.62;41.66
51053;BME280;37093;37.716;-122.060;2023-03-11T01:47:33;99507.71;;;15.93;42.95
51053;BME280;37093;37.716;-122.060;2023-03-11T01:50:04;99497.55;;;16.18;41.30
51053;BME280;37093;37.716;-122.060;2023-03-11T01:52:35;99490.44;;;15.79;42.22
51053;BME280;37093;37.716;-122.060;2023-03-11T01:55:04;99492.84;;;16.33;42.40
51053;BME280;37093;37.716;-122.060;2023-03-11T01:57:33;99499.59;;;15.82;43.71
51053;BME280;37093;37.716;-122.060;2023-03-11T02:00:10;99497.73;;;15.76;42.05
51053;BME280;37093;37.716;-122.060;2023-03-11T02:02:42;99494.84;;;15.40;43.00
51053;BME280;37093;37.716;-122.060;2023-03-11T02:05:13;99495.61;;;15.46;43.92
51053;BME280;37093;37.716;-122.060;2023-03-11T02:07:42;99499.02;;;15.84;42.45
51053;BME280;37093;37.716;-122.060;2023-03-11T02:10:12;99505.39;;;15.53;43.52
51053;BME280;37093;37.716;-122.060;2023-03-11T02:12:41;99508.75;;;16.02;43.37
51053;BME280;37093;37.716;-122.060;2023-03-11T02:15:11;99504.69;;;15.73;43.48
51053;BME280;37093;37.716;-122.060;2023-03-11T02:17:41;99509.09;;;16.19;43.02
51053;BME280;37093;37.716;-122.060;2023-03-11T02:20:19;99510.01;;;16.13;43.01
51053;BME280;37093;37.716;-122.060;2023-03-11T02:22:48;99513.30;;;16.14;43.45
51053;BME280;37093;37.716;-122.060;2023-03-11T02:25:35;99515.61;;;16.28;45.23
51053;BME280;37093;37.716;-122.060;2023-03-11T02:28:09;99510.32;;;16.58;44.00
51053;BME280;37093;37.716;-122.060;2023-03-11T02:30:41;99514.31;;;16.63;43.83
51053;BME280;37093;37.716;-122.060;2023-03-11T02:33:19;99514.18;;;16.69;44.50
51053;BME280;37093;37.716;-122.060;2023-03-11T02:35:48;99518.19;;;16.74;44.49
51053;BME280;37093;37.716;-122.060;2023-03-11T02:38:16;99514.04;;;16.94;44.24
51053;BME280;37093;37.716;-122.060;2023-03-11T02:40:51;99512.23;;;16.46;44.12
51053;BME280;37093;37.716;-122.060;2023-03-11T02:43:23;99519.82;;;16.64;43.37
51053;BME280;37093;37.716;-122.060;2023-03-11T02:45:53;99528.99;;;16.51;44.01
51053;BME280;37093;37.716;-122.060;2023-03-11T02:48:23;99529.89;;;16.50;42.96
51053;BME280;37093;37.716;-122.060;2023-03-11T02:50:53;99533.66;;;16.36;44.55
51053;BME280;37093;37.716;-122.060;2023-03-11T02:53:22;99544.40;;;16.57;44.56
51053;BME280;37093;37.716;-122.060;2023-03-11T02:55:49;99553.41;;;16.19;43.48
51053;BME280;37093;37.716;-122.060;2023-03-11T02:58:18;99557.52;;;16.09;44.55
51053;BME280;37093;37.716;-122.060;2023-03-11T03:00:47;99551.89;;;16.20;45.75
51053;BME280;37093;37.716;-122.060;2023-03-11T03:03:15;99543.77;;;16.20;45.05
51053;BME280;37093;37.716;-122.060;2023-03-11T03:05:43;99545.79;;;16.15;45.25
51053;BME280;37093;37.716;-122.060;2023-03-11T03:08:12;99550.12;;;16.16;44.92
51053;BME280;37093;37.716;-122.060;2023-03-11T03:10:40;99550.70;;;16.12;45.98
51053;BME280;37093;37.716;-122.060;2023-03-11T03:13:09;99550.75;;;15.92;45.02
51053;BME280;37093;37.716;-122.060;2023-03-11T03:15:37;99549.58;;;15.87;46.15
51053;BME280;37093;37.716;-122.060;2023-03-11T03:18:06;99548.56;;;15.90;45.60
51053;BME280;37093;37.716;-122.060;2023-03-11T03:20:34;99545.54;;;15.84;45.13
51053;BME280;37093;37.716;-122.060;2023-03-11T03:23:03;99551.65;;;15.84;45.11
51053;BME280;37093;37.716;-122.060;2023-03-11T03:25:32;99554.37;;;15.80;44.23
51053;BME280;37093;37.716;-122.060;2023-03-11T03:28:00;99557.92;;;15.87;45.47
51053;BME280;37093;37.716;-122.060;2023-03-11T03:30:29;99561.41;;;15.81;46.06
51053;BME280;37093;37.716;-122.060;2023-03-11T03:32:57;99555.60;;;15.72;44.86
51053;BME280;37093;37.716;-122.060;2023-03-11T03:35:26;99551.50;;;15.40;45.99
51053;BME280;37093;37.716;-122.060;2023-03-11T03:37:54;99552.42;;;15.87;44.81
51053;BME280;37093;37.716;-122.060;2023-03-11T03:40:23;99552.50;;;15.38;44.00
51053;BME280;37093;37.716;-122.060;2023-03-11T03:42:51;99551.30;;;15.37;46.42
51053;BME280;37093;37.716;-122.060;2023-03-11T03:45:20;99554.47;;;15.62;46.39
51053;BME280;37093;37.716;-122.060;2023-03-11T03:47:48;99551.73;;;15.63;46.26
51053;BME280;37093;37.716;-122.060;2023-03-11T03:50:17;99553.39;;;15.27;46.21
51053;BME280;37093;37.716;-122.060;2023-03-11T03:52:46;99550.41;;;15.50;46.40
51053;BME280;37093;37.716;-122.060;2023-03-11T03:55:14;99552.40;;;15.14;46.00
51053;BME280;37093;37.716;-122.060;2023-03-11T03:57:43;99551.63;;;15.40;45.52
51053;BME280;37093;37.716;-122.060;2023-03-11T04:00:12;99545.43;;;14.76;45.13
51053;BME280;37093;37.716;-122.060;2023-03-11T04:02:41;99557.57;;;14.08;47.89
51053;BME280;37093;37.716;-122.060;2023-03-11T04:05:10;99560.19;;;13.91;48.21
51053;BME280;37093;37.716;-122.060;2023-03-11T04:07:38;99558.67;;;14.20;47.12
51053;BME280;37093;37.716;-122.060;2023-03-11T04:10:07;99555.73;;;14.46;48.11
51053;BME280;37093;37.716;-122.060;2023-03-11T04:12:36;99561.82;;;14.04;47.06
51053;BME280;37093;37.716;-122.060;2023-03-11T04:15:05;99568.13;;;14.67;46.62
51053;BME280;37093;37.716;-122.060;2023-03-11T04:17:34;99565.61;;;14.93;46.91
51053;BME280;37093;37.716;-122.060;2023-03-11T04:20:03;99567.64;;;14.59;46.43
51053;BME280;37093;37.716;-122.060;2023-03-11T04:22:32;99578.17;;;15.09;47.35
51053;BME280;37093;37.716;-122.060;2023-03-11T04:25:01;99592.07;;;14.70;47.67
51053;BME280;37093;37.716;-122.060;2023-03-11T04:27:29;99585.06;;;14.89;47.84
51053;BME280;37093;37.716;-122.060;2023-03-11T04:29:58;99576.11;;;14.96;48.09
51053;BME280;37093;37.716;-122.060;2023-03-11T04:32:26;99567.58;;;15.08;46.93
51053;BME280;37093;37.716;-122.060;2023-03-11T04:34:55;99558.67;;;14.67;46.49
51053;BME280;37093;37.716;-122.060;2023-03-11T04:37:27;99568.81;;;15.16;47.39
51053;BME280;37093;37.716;-122.060;2023-03-11T04:39:55;99578.37;;;14.79;47.35
51053;BME280;37093;37.716;-122.060;2023-03-11T04:42:24;99585.74;;;14.74;47.58
51053;BME280;37093;37.716;-122.060;2023-03-11T04:44:52;99607.11;;;15.13;47.28
51053;BME280;37093;37.716;-122.060;2023-03-11T04:47:21;99624.06;;;14.89;46.59
51053;BME280;37093;37.716;-122.060;2023-03-11T04:49:50;99620.05;;;14.80;47.65
51053;BME280;37093;37.716;-122.060;2023-03-11T04:52:18;99619.74;;;15.01;48.15
51053;BME280;37093;37.716;-122.060;2023-03-11T04:54:47;99615.52;;;14.92;48.44
51053;BME280;37093;37.716;-122.060;2023-03-11T04:57:15;99613.44;;;15.03;47.08
51053;BME280;37093;37.716;-122.060;2023-03-11T04:59:44;99621.94;;;15.03;47.69
51053;BME280;37093;37.716;-122.060;2023-03-11T05:02:12;99622.56;;;15.02;46.36
51053;BME280;37093;37.716;-122.060;2023-03-11T05:04:41;99618.94;;;15.09;46.86
51053;BME280;37093;37.716;-122.060;2023-03-11T05:07:09;99613.82;;;14.96;46.55
51053;BME280;37093;37.716;-122.060;2023-03-11T05:09:37;99610.47;;;14.83;47.03
51053;BME280;37093;37.716;-122.060;2023-03-11T05:12:06;99615.92;;;14.87;48.02
51053;BME280;37093;37.716;-122.060;2023-03-11T05:14:35;99625.74;;;15.18;46.64
51053;BME280;37093;37.716;-122.060;2023-03-11T05:17:03;99629.74;;;14.71;47.48
51053;BME280;37093;37.716;-122.060;2023-03-11T05:19:32;99627.67;;;15.03;47.32
51053;BME280;37093;37.716;-122.060;2023-03-11T05:22:01;99633.07;;;14.97;46.58
51053;BME280;37093;37.716;-122.060;2023-03-11T05:24:29;99630.99;;;15.41;46.97
51053;BME280;37093;37.716;-122.060;2023-03-11T05:26:59;99628.14;;;14.95;48.27
51053;BME280;37093;37.716;-122.060;2023-03-11T05:29:28;99624.90;;;14.99;47.43
51053;BME280;37093;37.716;-122.060;2023-03-11T05:31:56;99626.93;;;15.01;47.90
51053;BME280;37093;37.716;-122.060;2023-03-11T05:34:25;99626.48;;;15.08;47.60
51053;BME280;37093;37.716;-122.060;2023-03-11T05:36:53;99628.44;;;15.07;46.89
51053;BME280;37093;37.716;-122.060;2023-03-11T05:39:22;99623.86;;;15.32;46.63
51053;BME280;37093;37.716;-122.060;2023-03-11T05:41:50;99622.51;;;15.09;47.58
51053;BME280;37093;37.716;-122.060;2023-03-11T05:44:19;99621.71;;;15.06;47.34
51053;BME280;37093;37.716;-122.060;2023-03-11T05:46:47;99626.25;;;15.04;47.24
51053;BME280;37093;37.716;-122.060;2023-03-11T05:49:16;99627.19;;;14.94;46.89
51053;BME280;37093;37.716;-122.060;2023-03-11T05:51:44;99628.82;;;15.23;47.51
51053;BME280;37093;37.716;-122.060;2023-03-11T05:54:13;99633.12;;;15.23;47.56
51053;BME280;37093;37.716;-122.060;2023-03-11T05:56:43;99638.61;;;15.11;47.81
51053;BME280;37093;37.716;-122.060;2023-03-11T05:59:12;99639.47;;;15.14;47.61
51053;BME280;37093;37.716;-122.060;2023-03-11T06:01:41;99642.47;;;15.21;47.60
51053;BME280;37093;37.716;-122.060;2023-03-11T06:04:09;99641.77;;;15.18;47.58
51053;BME280;37093;37.716;-122.060;2023-03-11T06:06:39;99647.41;;;15.21;48.15
51053;BME280;37093;37.716;-122.060;2023-03-11T06:09:11;99648.84;;;15.23;47.47
51053;BME280;37093;37.716;-122.060;2023-03-11T06:11:41;99650.16;;;15.25;47.22
51053;BME280;37093;37.716;-122.060;2023-03-11T06:14:12;99652.77;;;15.23;47.38
51053;BME280;37093;37.716;-122.060;2023-03-11T06:16:40;99656.79;;;15.28;47.89
51053;BME280;37093;37.716;-122.060;2023-03-11T06:19:09;99658.85;;;15.29;47.71
51053;BME280;37093;37.716;-122.060;2023-03-11T06:21:38;99662.86;;;15.29;47.83
51053;BME280;37093;37.716;-122.060;2023-03-11T06:24:07;99661.95;;;15.24;47.08
51053;BME280;37093;37.716;-122.060;2023-03-11T06:26:35;99663.62;;;15.16;47.34
51053;BME280;37093;37.716;-122.060;2023-03-11T06:29:04;99671.45;;;15.23;48.21
51053;BME280;37093;37.716;-122.060;2023-03-11T06:31:34;99668.88;;;15.27;47.68
51053;BME280;37093;37.716;-122.060;2023-03-11T06:34:03;99671.50;;;15.22;46.62
51053;BME280;37093;37.716;-122.060;2023-03-11T06:36:32;99673.10;;;15.10;46.71
51053;BME280;37093;37.716;-122.060;2023-03-11T06:39:00;99674.51;;;15.05;47.27
51053;BME280;37093;37.716;-122.060;2023-03-11T06:41:28;99675.31;;;15.04;48.62
51053;BME280;37093;37.716;-122.060;2023-03-11T06:43:59;99677.37;;;15.37;48.54
51053;BME280;37093;37.716;-122.060;2023-03-11T06:46:28;99682.09;;;15.22;48.45
51053;BME280;37093;37.716;-122.060;2023-03-11T06:48:57;99683.48;;;15.30;48.36
51053;BME280;37093;37.716;-122.060;2023-03-11T06:51:25;99685.20;;;15.01;48.04
51053;BME280;37093;37.716;-122.060;2023-03-11T06:53:54;99685.64;;;15.31;48.22
51053;BME280;37093;37.716;-122.060;2023-03-11T06:56:23;99687.11;;;15.32;48.99
51053;BME280;37093;37.716;-122.060;2023-03-11T06:58:53;99689.85;;;15.39;48.25
51053;BME280;37093;37.716;-122.060;2023-03-11T07:01:24;99691.93;;;15.37;48.15
51053;BME280;37093;37.716;-122.060;2023-03-11T07:03:52;99694.20;;;15.38;48.13
51053;BME280;37093;37.716;-122.060;2023-03-11T07:06:23;99704.09;;;15.09;48.77
51053;BME280;37093;37.716;-122.060;2023-03-11T07:08:52;99712.41;;;15.43;48.34
51053;BME280;37093;37.716;-122.060;2023-03-11T07:11:21;99713.30;;;15.45;48.56
51053;BME280;37093;37.716;-122.060;2023-03-11T07:13:50;99717.42;;;15.49;47.45
51053;BME280;37093;37.716;-122.060;2023-03-11T07:16:20;99720.42;;;15.45;47.98
51053;BME280;37093;37.716;-122.060;2023-03-11T07:18:50;99723.73;;;15.49;48.36
51053;BME280;37093;37.716;-122.060;2023-03-11T07:21:21;99721.19;;;15.24;48.90
51053;BME280;37093;37.716;-122.060;2023-03-11T07:23:53;99723.12;;;15.54;48.46
51053;BME280;37093;37.716;-122.060;2023-03-11T07:26:22;99723.58;;;15.51;48.04
51053;BME280;37093;37.716;-122.060;2023-03-11T07:28:52;99718.88;;;15.53;48.35
51053;BME280;37093;37.716;-122.060;2023-03-11T07:31:22;99714.26;;;15.21;48.00
51053;BME280;37093;37.716;-122.060;2023-03-11T07:33:52;99722.26;;;15.48;47.73
51053;BME280;37093;37.716;-122.060;2023-03-11T07:36:23;99723.50;;;15.46;47.78
51053;BME280;37093;37.716;-122.060;2023-03-11T07:38:55;99722.73;;;15.51;47.85
51053;BME280;37093;37.716;-122.060;2023-03-11T07:41:24;99722.45;;;15.47;48.25
51053;BME280;37093;37.716;-122.060;2023-03-11T07:43:55;99718.07;;;15.43;46.94
51053;BME280;37093;37.716;-122.060;2023-03-11T07:46:25;99717.29;;;15.38;46.86
51053;BME280;37093;37.716;-122.060;2023-03-11T07:48:54;99714.90;;;15.31;46.77
51053;BME280;37093;37.716;-122.060;2023-03-11T07:51:25;99725.89;;;15.24;46.99
51053;BME280;37093;37.716;-122.060;2023-03-11T07:53:56;99732.85;;;15.26;47.56
51053;BME280;37093;37.716;-122.060;2023-03-11T07:56:25;99734.33;;;15.34;48.01
51053;BME280;37093;37.716;-122.060;2023-03-11T07:58:54;99733.72;;;15.36;47.38
51053;BME280;37093;37.716;-122.060;2023-03-11T08:01:12;99735.42;;;14.89;47.12
51053;BME280;37093;37.716;-122.060;2023-03-11T08:03:42;99729.88;;;14.21;46.21
51053;BME280;37093;37.716;-122.060;2023-03-11T08:06:13;99731.98;;;16.04;43.82
51053;BME280;37093;37.716;-122.060;2023-03-11T08:08:41;99727.69;;;16.52;43.85
51053;BME280;37093;37.716;-122.060;2023-03-11T08:11:10;99722.61;;;16.14;44.33
51053;BME280;37093;37.716;-122.060;2023-03-11T08:13:38;99716.96;;;14.90;45.31
51053;BME280;37093;37.716;-122.060;2023-03-11T08:16:08;99716.30;;;15.24;44.76
51053;BME280;37093;37.716;-122.060;2023-03-11T08:18:37;99718.40;;;15.25;45.83
51053;BME280;37093;37.716;-122.060;2023-03-11T08:21:07;99722.04;;;15.31;46.25
51053;BME280;37093;37.716;-122.060;2023-03-11T08:23:36;99720.25;;;15.21;46.37
51053;BME280;37093;37.716;-122.060;2023-03-11T08:26:06;99722.91;;;15.25;46.96
51053;BME280;37093;37.716;-122.060;2023-03-11T08:28:35;99722.88;;;14.97;46.53
51053;BME280;37093;37.716;-122.060;2023-03-11T08:31:12;99724.63;;;15.01;46.97
51053;BME280;37093;37.716;-122.060;2023-03-11T08:33:40;99727.89;;;15.33;47.28
51053;BME280;37093;37.716;-122.060;2023-03-11T08:36:10;99732.04;;;15.39;47.57
51053;BME280;37093;37.716;-122.060;2023-03-11T08:38:38;99735.02;;;15.38;47.12
51053;BME280;37093;37.716;-122.060;2023-03-11T08:41:07;99737.85;;;15.39;46.49
51053;BME280;37093;37.716;-122.060;2023-03-11T08:43:35;99735.81;;;15.40;45.67
51053;BME280;37093;37.716;-122.060;2023-03-11T08:46:04;99736.09;;;15.34;45.93
51053;BME280;37093;37.716;-122.060;2023-03-11T08:48:33;99738.31;;;15.30;46.38
51053;BME280;37093;37.716;-122.060;2023-03-11T08:51:09;99739.92;;;15.32;45.52
51053;BME280;37093;37.716;-122.060;2023-03-11T08:53:38;99739.07;;;15.30;46.45
51053;BME280;37093;37.716;-122.060;2023-03-11T08:56:07;99736.91;;;15.06;46.74
51053;BME280;37093;37.716;-122.060;2023-03-11T08:58:36;99737.29;;;15.38;47.02
51053;BME280;37093;37.716;-122.060;2023-03-11T09:01:05;99737.79;;;15.16;46.40
51053;BME280;37093;37.716;-122.060;2023-03-11T09:03:35;99734.04;;;15.43;47.04
51053;BME280;37093;37.716;-122.060;2023-03-11T09:06:06;99730.99;;;15.42;46.35
51053;BME280;37093;37.716;-122.060;2023-03-11T09:08:35;99732.55;;;15.43;46.32
51053;BME280;37093;37.716;-122.060;2023-03-11T09:11:04;99735.28;;;15.19;46.50
51053;BME280;37093;37.716;-122.060;2023-03-11T09:13:32;99738.50;;;15.49;45.13
51053;BME280;37093;37.716;-122.060;2023-03-11T09:16:01;99742.71;;;15.20;45.54
51053;BME280;37093;37.716;-122.060;2023-03-11T09:18:29;99743.40;;;15.36;46.18
51053;BME280;37093;37.716;-122.060;2023-03-11T09:20:59;99742.39;;;15.15;47.14
51053;BME280;37093;37.716;-122.060;2023-03-11T09:23:27;99744.62;;;15.19;46.95
51053;BME280;37093;37.716;-122.060;2023-03-11T09:25:56;99735.01;;;15.26;47.37
51053;BME280;37093;37.716;-122.060;2023-03-11T09:28:24;99733.59;;;15.09;47.30
51053;BME280;37093;37.716;-122.060;2023-03-11T09:30:53;99730.87;;;15.13;46.90
51053;BME280;37093;37.716;-122.060;2023-03-11T09:33:21;99734.16;;;15.41;47.38
51053;BME280;37093;37.716;-122.060;2023-03-11T09:35:50;99734.53;;;15.15;46.91
51053;BME280;37093;37.716;-122.060;2023-03-11T09:38:18;99736.71;;;15.44;47.04
51053;BME280;37093;37.716;-122.060;2023-03-11T09:40:55;99738.95;;;15.18;47.43
51053;BME280;37093;37.716;-122.060;2023-03-11T09:43:37;99741.45;;;15.50;46.98
51053;BME280;37093;37.716;-122.060;2023-03-11T09:46:28;99743.62;;;15.49;46.42
51053;BME280;37093;37.716;-122.060;2023-03-11T09:49:07;99744.54;;;15.54;47.02
51053;BME280;37093;37.716;-122.060;2023-03-11T09:51:46;99740.38;;;15.60;46.46
51053;BME280;37093;37.716;-122.060;2023-03-11T09:54:20;99742.07;;;15.57;46.58
51053;BME280;37093;37.716;-122.060;2023-03-11T09:56:49;99741.60;;;15.32;46.96
51053;BME280;37093;37.716;-122.060;2023-03-11T09:59:22;99742.35;;;15.28;46.86
51053;BME280;37093;37.716;-122.060;2023-03-11T10:01:54;99744.87;;;15.28;47.28
51053;BME280;37093;37.716;-122.060;2023-03-11T10:04:26;99744.67;;;15.60;46.53
51053;BME280;37093;37.716;-122.060;2023-03-11T10:06:55;99744.89;;;15.63;46.63
51053;BME280;37093;37.716;-122.060;2023-03-11T10:09:32;99750.36;;;15.35;47.44
51053;BME280;37093;37.716;-122.060;2023-03-11T10:12:15;99752.47;;;15.17;47.31
51053;BME280;37093;37.716;-122.060;2023-03-11T10:14:54;99757.26;;;15.41;47.30
51053;BME280;37093;37.716;-122.060;2023-03-11T10:17:41;99760.17;;;15.73;47.21
51053;BME280;37093;37.716;-122.060;2023-03-11T10:20:16;99756.84;;;15.43;47.10
51053;BME280;37093;37.716;-122.060;2023-03-11T10:22:54;99750.99;;;15.50;46.57
51053;BME280;37093;37.716;-122.060;2023-03-11T10:25:31;99740.83;;;15.42;46.59
51053;BME280;37093;37.716;-122.060;2023-03-11T10:28:09;99735.14;;;15.49;46.16
51053;BME280;37093;37.716;-122.060;2023-03-11T10:30:42;99731.06;;;15.73;46.66
51053;BME280;37093;37.716;-122.060;2023-03-11T10:33:20;99724.66;;;15.70;45.56
51053;BME280;37093;37.716;-122.060;2023-03-11T10:35:53;99722.19;;;14.53;47.31
51053;BME280;37093;37.716;-122.060;2023-03-11T10:38:24;99712.77;;;15.13;47.22
51053;BME280;37093;37.716;-122.060;2023-03-11T10:40:55;99715.38;;;15.06;47.45
51053;BME280;37093;37.716;-122.060;2023-03-11T10:43:30;99716.65;;;15.11;47.38
51053;BME280;37093;37.716;-122.060;2023-03-11T10:46:06;99713.27;;;15.45;47.43
51053;BME280;37093;37.716;-122.060;2023-03-11T10:48:37;99707.84;;;15.47;46.80
51053;BME280;37093;37.716;-122.060;2023-03-11T10:51:14;99706.83;;;15.40;45.49
51053;BME280;37093;37.716;-122.060;2023-03-11T10:53:47;99707.96;;;15.22;46.60
51053;BME280;37093;37.716;-122.060;2023-03-11T10:56:27;99700.65;;;15.04;46.46
51053;BME280;37093;37.716;-122.060;2023-03-11T10:58:55;99694.39;;;15.14;47.02
51053;BME280;37093;37.716;-122.060;2023-03-11T11:01:24;99694.05;;;15.17;46.88
51053;BME280;37093;37.716;-122.060;2023-03-11T11:03:55;99694.87;;;14.93;46.66
51053;BME280;37093;37.716;-122.060;2023-03-11T11:06:27;99695.70;;;15.05;46.41
51053;BME280;37093;37.716;-122.060;2023-03-11T11:09:15;99691.62;;;15.37;45.25
51053;BME280;37093;37.716;-122.060;2023-03-11T11:12:00;99687.70;;;15.57;44.99
51053;BME280;37093;37.716;-122.060;2023-03-11T11:16:42;99688.85;;;16.28;44.26
51053;BME280;37093;37.716;-122.060;2023-03-11T11:19:11;99693.28;;;15.72;43.93
51053;BME280;37093;37.716;-122.060;2023-03-11T11:21:44;99689.05;;;15.74;43.70
51053;BME280;37093;37.716;-122.060;2023-03-11T11:24:19;99689.09;;;15.56;44.75
51053;BME280;37093;37.716;-122.060;2023-03-11T11:27:11;99685.79;;;15.80;43.99
51053;BME280;37093;37.716;-122.060;2023-03-11T11:29:42;99685.06;;;15.54;44.65
51053;BME280;37093;37.716;-122.060;2023-03-11T11:32:18;99688.33;;;15.80;44.65
51053;BME280;37093;37.716;-122.060;2023-03-11T11:34:57;99687.77;;;15.05;44.93
51053;BME280;37093;37.716;-122.060;2023-03-11T11:37:30;99687.94;;;14.91;45.44
51053;BME280;37093;37.716;-122.060;2023-03-11T11:40:02;99687.28;;;15.27;45.79
51053;BME280;37093;37.716;-122.060;2023-03-11T11:42:31;99687.14;;;15.31;45.65
51053;BME280;37093;37.716;-122.060;2023-03-11T11:45:08;99684.88;;;15.29;45.83
51053;BME280;37093;37.716;-122.060;2023-03-11T11:47:42;99685.97;;;15.39;45.62
51053;BME280;37093;37.716;-122.060;2023-03-11T11:50:19;99685.59;;;15.66;44.98
51053;BME280;37093;37.716;-122.060;2023-03-11T11:52:55;99686.90;;;15.10;45.11
51053;BME280;37093;37.716;-122.060;2023-03-11T11:55:26;99684.04;;;15.16;45.26
51053;BME280;37093;37.716;-122.060;2023-03-11T11:57:57;99685.97;;;15.14;44.82
51053;BME280;37093;37.716;-122.060;2023-03-11T12:00:33;99687.62;;;14.86;46.29
51053;BME280;37093;37.716;-122.060;2023-03-11T12:03:20;99683.81;;;15.25;44.58
51053;BME280;37093;37.716;-122.060;2023-03-11T12:05:56;99676.65;;;15.16;45.55
51053;BME280;37093;37.716;-122.060;2023-03-11T12:08:32;99674.05;;;15.04;45.44
51053;BME280;37093;37.716;-122.060;2023-03-11T12:11:04;99665.02;;;15.39;44.65
51053;BME280;37093;37.716;-122.060;2023-03-11T12:13:49;99661.33;;;15.34;44.83
51053;BME280;37093;37.716;-122.060;2023-03-11T12:16:29;99662.90;;;15.22;45.38
51053;BME280;37093;37.716;-122.060;2023-03-11T12:19:08;99662.86;;;14.95;44.84
51053;BME280;37093;37.716;-122.060;2023-03-11T12:21:55;99663.51;;;15.07;45.38
51053;BME280;37093;37.716;-122.060;2023-03-11T12:24:44;99673.96;;;15.23;44.91
51053;BME280;37093;37.716;-122.060;2023-03-11T12:27:20;99675.72;;;15.13;45.57
51053;BME280;37093;37.716;-122.060;2023-03-11T12:29:52;99675.40;;;15.17;45.96
51053;BME280;37093;37.716;-122.060;2023-03-11T12:32:26;99675.75;;;15.36;44.48
51053;BME280;37093;37.716;-122.060;2023-03-11T12:35:01;99676.01;;;15.46;44.68
51053;BME280;37093;37.716;-122.060;2023-03-11T12:37:30;99679.81;;;15.32;44.63
51053;BME280;37093;37.716;-122.060;2023-03-11T12:39:59;99682.92;;;15.66;44.42
51053;BME280;37093;37.716;-122.060;2023-03-11T12:42:40;99681.53;;;15.54;45.05
51053;BME280;37093;37.716;-122.060;2023-03-11T12:45:48;99673.20;;;15.60;45.30
51053;BME280;37093;37.716;-122.060;2023-03-11T12:48:34;99670.91;;;15.57;45.13
51053;BME280;37093;37.716;-122.060;2023-03-11T12:51:03;99670.00;;;15.47;45.34
51053;BME280;37093;37.716;-122.060;2023-03-11T12:53:48;99676.39;;;15.58;45.48